• Join FlightAware (Why Join?)
  • Login
  • US Flag 
09:10PM EDT


 

Airport Tracker/Info


-or-


 

Live Flight TrackerFlight Track Log ✈ ASQ5941 ✈ 08-May-2013 ✈ KORD - KAVP

Flight Track Log - Related Links

Times and Time Zones

All times are in EDT time to prevent confusion due to time zone crossing. See the ASQ5941 flight status page for this flight to view local times or setup timezone preferences in your user account.

Time Position Orientation Groundspeed Altitude Reporting Facility
EDT Latitude Longitude Course Direction KTS MPH feet Rate Location/Type
03:48PM 41.9667 -87.8667 77° East 167 192 2,100  Level Chicago TRACON
03:49PM 41.9667 -87.8000 90° East 221 254 3,900 1,800 Climbing Chicago TRACON
03:50PM 41.9833 -87.7000 77° East 266 306 5,700 2,160 Climbing Chicago TRACON
03:51PM 42.0495 -87.3722 83° East  Level FlightAware Approximate
03:51PM 42.0167 -87.6000 66° East 279 321 8,300  Level Chicago TRACON
03:52PM 42.0698 -87.2380 78° East  Level FlightAware Approximate
03:52PM 42.0333 -87.5000 77° East 294 338 10,400  Level Chicago TRACON
03:53PM 42.0910 -87.1040 77° East  Level FlightAware Approximate
03:53PM 42.0572 -87.3619 77° East 299 344 12,800  Level Chicago Center
03:54PM 42.0792 -87.2461 76° East 317 365 13,900 900 Climbing Chicago Center
03:55PM 42.1039 -87.1164 76° East 353 406 14,700 960 Climbing Chicago Center
03:56PM 42.1153 -86.9778 84° East 369 425 15,900 1,380 Climbing Chicago Center
03:57PM 42.1211 -86.8097 87° East 373 429 17,600 1,260 Climbing Chicago Center
03:58PM 42.1267 -86.6622 87° East 382 440 18,600 960 Climbing Chicago Center
03:59PM 42.1317 -86.5156 87° East 391 450 19,600 960 Climbing Chicago Center
04:00PM 42.1361 -86.3658 88° East 399 459 20,700 1,080 Climbing Chicago Center
04:02PM 42.1411 -86.2147 87° East 404 465 21,900 1,140 Climbing Chicago Center
04:03PM 42.1436 -86.0611 89° East 408 470 23,100 1,320 Climbing Chicago Center
04:04PM 42.1428 -85.8933 90° East 403 464 24,700 1,320 Climbing Chicago Center
04:05PM 42.1403 -85.7436 91° East 402 463 25,900 1,140 Climbing Chicago Center
04:06PM 42.1392 -85.5928 91° East 405 466 27,100 1,260 Climbing Chicago Center
04:07PM 42.1383 -85.4472 90° East 396 456 28,600 1,320 Climbing Chicago Center
04:08PM 42.1381 -85.2544 90° East 390 449 30,100 1,140 Climbing Cleveland Center
04:09PM 42.1378 -85.1061 90° East 390 449 31,100 1,020 Climbing Cleveland Center
04:10PM 42.1331 -84.9572 92° East 390 449 32,200 1,020 Climbing Cleveland Center
04:11PM 42.1283 -84.8028 92° East 400 460 33,200 1,200 Climbing Cleveland Center
04:12PM 42.1275 -84.6544 90° East 400 460 34,600 900 Climbing Cleveland Center
04:13PM 42.1283 -84.5061 90° East 409 471 35,000 180 Climbing Cleveland Center
04:14PM 42.1347 -84.3803 86° East 402 463 35,000  Level Cleveland Center
04:15PM 42.1508 -84.2047 83° East 420 483 35,000  Level Cleveland Center
04:18PM 42.2025 -83.7256 82° East 431 496 35,000  Level Cleveland Center
04:19PM 42.2194 -83.5636 82° East 424 488 35,000  Level Cleveland Center
04:20PM 42.2297 -83.4042 85° East 424 488 35,000 600 Level Cleveland Center
04:21PM 42.2311 -83.2500 89° East 419 482 36,300 960 Climbing Cleveland Center
04:22PM 42.2308 -83.0817 90° East 419 482 37,000 300 Climbing Cleveland Center
04:23PM 42.2322 -82.9219 89° East 419 482 37,000  Level Cleveland Center
04:24PM 42.2331 -82.7678 90° East 419 482 37,000  Level Cleveland Center
04:25PM 42.2317 -82.6106 91° East 419 482 37,000  Level Cleveland Center
04:26PM 42.2303 -82.4536 91° East 419 482 37,000  Level Cleveland Center
04:27PM 42.2328 -82.2994 89° East 419 482 37,000  Level Cleveland Center
04:28PM 42.2267 -82.1422 93° East 419 482 37,000  Level Cleveland Center
04:29PM 42.2161 -81.9822 95° East 425 489 37,000  Level Cleveland Center
04:30PM 42.2056 -81.8250 95° East 425 489 37,000  Level Cleveland Center
04:31PM 42.1947 -81.6622 95° East 425 489 37,000  Level Cleveland Center
04:32PM 42.1833 -81.5050 96° East 425 489 37,000  Level Cleveland Center
04:33PM 42.1742 -81.3675 95° East 425 489 37,000  Level Cleveland Center
04:34PM 42.1625 -81.2106 96° East 425 489 37,000  Level Cleveland Center
04:35PM 42.1486 -81.0536 97° East 420 483 37,000  Level Cleveland Center
04:36PM 42.1389 -80.9025 95° East 420 483 37,000  Level Cleveland Center
04:37PM 42.1267 -80.7456 96° East 415 478 37,000  Level Cleveland Center
04:38PM 42.1122 -80.5747 96° East 415 478 37,000  Level Cleveland Center
04:39PM 42.0994 -80.4153 96° East 420 483 37,000  Level Cleveland Center
04:40PM 42.0908 -80.2894 95° East 426 490 37,000  Level Cleveland Center
04:41PM 42.0756 -80.0992 96° East 418 481 37,000  Level Cleveland Center
04:42PM 42.0625 -79.9650 97° East 413 475 37,000  Level Cleveland Center
04:43PM 42.0511 -79.8086 96° East 413 475 37,000 -420 Level Cleveland Center
04:44PM 42.0375 -79.6550 97° East 413 475 36,200 -900 Descending Cleveland Center
04:45PM 42.0236 -79.5014 97° East 413 475 35,300 -840 Descending Cleveland Center
04:46PM 42.0075 -79.3508 98° East 408 470 34,600 -1,200 Descending Cleveland Center
04:47PM 41.9956 -79.2086 96° East 401 461 32,900 -1,560 Descending Cleveland Center
04:48PM 41.9833 -79.0608 96° East 396 456 31,500 -1,440 Descending Cleveland Center
04:50PM 41.9561 -78.7628 97° East 396 456 28,600 -1,440 Descending Cleveland Center
04:51PM 41.9408 -78.6067 97° East 410 472 27,200 -1,560 Descending Cleveland Center
04:52PM 41.9231 -78.4314 98° East 422 486 25,500 -1,380 Descending Cleveland Center
04:53PM 41.9103 -78.2981 97° East 422 486 24,500 -1,140 Descending Cleveland Center
04:54PM 41.8944 -78.1450 98° East 416 479 23,300 -600 Descending Cleveland Center
04:55PM 41.8697 -77.9017 98° East 395 455 23,000 -120 Descending New York Center
04:56PM 41.8303 -77.7608 111° Southeast 395 455 23,000  Level New York Center
04:57PM 41.7756 -77.6272 119° Southeast 401 461 23,000  Level New York Center
04:58PM 41.7247 -77.4939 117° Southeast 407 468 23,000 -240 Level New York Center
04:59PM 41.6867 -77.3569 110° East 401 461 22,600 -900 Descending New York Center
05:00PM 41.6747 -77.2306 97° East 366 421 21,300 -1,140 Descending New York Center
05:01PM 41.6603 -77.1125 99° East 340 391 20,400 -660 Descending New York Center
05:02PM 41.6461 -76.9892 99° East 330 380 20,000 -720 Descending New York Center
05:03PM 41.6342 -76.8547 97° East 344 396 19,000 -1,260 Descending New York Center
05:04PM 41.5969 -76.7264 111° Southeast 362 417 17,500 -1,260 Descending New York Center
05:05PM 41.5617 -76.5986 110° East 373 429 16,600 -1,200 Descending New York Center
05:06PM 41.5569 -76.4844 93° East 350 403 15,200 -1,860 Descending New York Center
05:07PM 41.5547 -76.3511 91° East 355 409 12,900 -2,280 Descending New York Center
05:08PM 41.5550 -76.2153 90° East 340 391 10,700 -1,920 Descending New York Center
05:09PM 41.5389 -76.1117 102° East 300 345 9,100 -2,040 Descending New York Center
05:10PM 41.4986 -76.0336 125° Southeast 264 304 6,800 -2,040 Descending New York Center
05:11PM 41.4553 -75.9775 136° Southeast 251 289 5,100 -1,440 Descending New York Center
05:12PM 41.3892 -75.9614 170° South 233 268 4,000 -600 Descending New York Center
05:13PM 41.3236 -75.9397 166° South 233 268 4,000  Level New York Center
05:14PM 41.2617 -75.9239 169° South 240 276 4,000  Level New York Center
05:15PM 41.2022 -75.9056 167° South 228 262 4,000  Level New York Center
05:16PM 41.1919 -75.8525 104° East 172 198 4,000 -660 Level New York Center
05:17PM 41.2481 -75.8042 33° Northeast 151 174 2,800 -960 Descending New York Center
05:18PM 41.2828 -75.7708 36° Northeast 165 190 2,100 -780 Descending New York Center
05:19PM 41.3153 -75.7458 30° Northeast 158 182 1,300 -480 Descending New York Center
05:20PM 41.3522 -75.7042 40° Northeast 151 174 1,200 -120 Descending New York Center